Time;durP1;ratioP1;P1;durP2;ratioP2;P2;SDS_P1;SDS_P2;PMS_P1;PMS_P2;Temp;Humidity;BMP_temperature;BMP_pressure;BME280_temperature;BME280_humidity;BME280_pressure;Samples;Min_cycle;Max_cycle;Signal;HPM_P1;HPM_P2
2022/09/24 00:01:32;;;;;;;4.00;3.70;;;;;;;10.02;70.58;95203.00;5054371;28;20463;-83
2022/09/24 00:04:03;;;;;;;3.57;3.27;;;;;;;10.00;70.22;95211.94;5054129;28;20985;-82
2022/09/24 00:06:33;;;;;;;3.40;3.17;;;;;;;10.00;70.42;95201.44;5054529;28;20807;-84
2022/09/24 00:09:00;;;;;;;3.73;3.43;;;;;;;10.00;70.18;95193.56;5054580;28;20800;-84
2022/09/24 00:11:28;;;;;;;4.80;3.63;;;;;;;9.98;70.19;95198.94;5054368;28;20809;-84
2022/09/24 00:13:57;;;;;;;3.40;3.10;;;;;;;9.98;69.74;95204.19;5054004;28;20465;-84
2022/09/24 00:16:26;;;;;;;3.70;3.40;;;;;;;10.00;70.24;95201.44;5054113;28;20867;-84
2022/09/24 00:18:54;;;;;;;3.60;3.30;;;;;;;9.99;69.88;95205.03;5054096;28;20498;-84
2022/09/24 00:21:23;;;;;;;5.10;3.43;;;;;;;9.98;69.65;95203.34;5053920;28;20533;-84
2022/09/24 00:23:52;;;;;;;3.80;3.33;;;;;;;9.85;70.31;95193.81;5018320;28;20469;-83
2022/09/24 00:29:21;;;;;;;3.87;3.57;;;;;;;9.99;70.04;95197.16;5011760;28;20459;-83
2022/09/24 00:31:49;;;;;;;3.70;3.40;;;;;;;10.02;70.52;95196.91;5011706;28;21018;-83
2022/09/24 00:34:15;;;;;;;4.27;3.87;;;;;;;9.98;70.61;95198.09;4963705;28;20448;-84
2022/09/24 00:36:45;;;;;;;3.87;3.57;;;;;;;9.95;70.02;95204.44;5011569;28;20779;-83
2022/09/24 00:39:12;;;;;;;3.70;3.40;;;;;;;9.91;70.24;95198.59;5011709;28;20447;-84
2022/09/24 00:41:45;;;;;;;4.77;3.60;;;;;;;9.84;70.58;95200.03;5010684;28;20527;-83
2022/09/24 00:44:47;;;;;;;4.47;4.03;;;;;;;9.76;71.05;95204.16;5011602;28;20447;-83
2022/09/24 00:47:15;;;;;;;3.60;3.30;;;;;;;9.57;71.16;95205.59;5011414;28;20452;-82
2022/09/24 00:49:43;;;;;;;5.00;4.33;;;;;;;9.54;71.83;95199.72;5011411;28;20449;-84
2022/09/24 00:52:11;;;;;;;5.47;4.10;;;;;;;9.54;71.45;95204.94;5011056;28;20457;-83
2022/09/24 00:54:38;;;;;;;6.27;4.67;;;;;;;9.50;71.56;95193.03;5011109;28;20444;-83
2022/09/24 00:57:05;;;;;;;3.90;3.50;;;;;;;9.44;71.78;95204.81;5011252;28;20447;-84
2022/09/24 00:59:32;;;;;;;5.13;3.97;;;;;;;9.45;72.60;95206.50;5019536;28;20811;-84
2022/09/24 01:01:59;;;;;;;4.90;4.33;;;;;;;9.42;72.37;95195.41;5034561;28;20503;-84
2022/09/24 01:04:27;;;;;;;4.63;4.23;;;;;;;9.36;72.67;95188.03;5052997;28;20469;-84
2022/09/24 01:06:55;;;;;;;4.60;4.10;;;;;;;9.31;72.65;95189.22;5053045;28;20442;-84
2022/09/24 01:09:26;;;;;;;3.80;3.50;;;;;;;9.16;73.27;95181.66;5053105;28;20461;-84
2022/09/24 01:12:02;;;;;;;4.07;3.63;;;;;;;9.06;73.14;95184.13;5052653;28;20446;-84
2022/09/24 01:14:43;;;;;;;4.13;3.73;;;;;;;9.05;73.62;95187.69;5052921;28;20441;-85
2022/09/24 01:17:20;;;;;;;4.30;3.90;;;;;;;8.96;73.82;95183.97;5052919;28;20449;-83
2022/09/24 01:20:24;;;;;;;6.00;3.80;;;;;;;9.00;73.90;95176.72;5053247;28;20514;-83
2022/09/24 01:23:08;;;;;;;6.03;4.30;;;;;;;8.97;74.02;95179.59;5052749;28;20446;-82
2022/09/24 01:25:45;;;;;;;3.80;3.50;;;;;;;8.94;73.93;95187.63;5052847;28;20540;-83
2022/09/24 01:28:28;;;;;;;11.30;3.83;;;;;;;8.94;74.10;95182.41;5052911;28;20441;-84
2022/09/24 01:31:01;;;;;;;4.40;3.70;;;;;;;8.94;73.85;95180.63;5052660;28;20452;-83
2022/09/24 01:33:32;;;;;;;4.17;3.47;;;;;;;8.95;73.85;95182.28;5052657;28;20446;-84
2022/09/24 01:36:07;;;;;;;4.07;3.70;;;;;;;8.94;74.06;95178.00;5052838;28;20449;-84
2022/09/24 01:38:38;;;;;;;6.13;4.63;;;;;;;8.92;74.04;95179.06;5052369;28;20820;-84
2022/09/24 01:41:07;;;;;;;4.30;3.90;;;;;;;8.95;73.67;95182.28;5052702;28;20452;-83
2022/09/24 01:43:34;;;;;;;4.73;4.33;;;;;;;8.89;74.16;95176.66;5052397;28;20441;-83
2022/09/24 01:46:05;;;;;;;4.30;3.90;;;;;;;8.94;74.39;95185.84;5052383;28;20450;-84
2022/09/24 01:48:33;;;;;;;4.50;4.10;;;;;;;8.93;74.14;95185.97;5052216;28;20945;-84
2022/09/24 01:51:04;;;;;;;4.60;4.23;;;;;;;8.93;74.48;95196.44;5049797;28;20452;-83
2022/09/24 01:53:36;;;;;;;4.80;3.80;;;;;;;8.96;73.81;95188.34;5052581;28;20448;-84
2022/09/24 01:56:08;;;;;;;5.10;4.60;;;;;;;8.90;74.16;95194.03;5052342;28;20502;-82
2022/09/24 01:58:40;;;;;;;4.30;3.90;;;;;;;8.90;73.71;95191.44;5052396;28;20477;-84
2022/09/24 02:01:12;;;;;;;4.67;4.27;;;;;;;8.92;73.66;95197.38;5051881;28;20453;-83
2022/09/24 02:03:45;;;;;;;4.10;3.70;;;;;;;8.88;73.61;95190.69;5052289;28;20489;-83
2022/09/24 02:06:17;;;;;;;4.50;4.10;;;;;;;8.93;73.73;95196.44;5052307;28;20453;-83
2022/09/24 02:08:47;;;;;;;3.97;3.63;;;;;;;8.89;74.27;95195.81;5052325;28;20453;-83
2022/09/24 02:11:17;;;;;;;5.00;4.47;;;;;;;8.91;73.68;95200.94;5052036;28;20544;-84
2022/09/24 02:13:50;;;;;;;4.80;3.93;;;;;;;8.93;73.88;95202.50;5052124;28;20454;-85
2022/09/24 02:16:21;;;;;;;4.37;3.97;;;;;;;8.93;73.57;95205.13;5051899;28;20889;-82
2022/09/24 02:18:52;;;;;;;4.50;4.10;;;;;;;8.94;73.80;95209.41;5017530;28;20477;-84
2022/09/24 02:21:21;;;;;;;5.73;4.47;;;;;;;8.89;74.22;95210.69;5052023;28;20503;-82
2022/09/24 02:23:54;;;;;;;4.43;3.70;;;;;;;8.85;73.90;95210.09;5052018;28;20442;-83
2022/09/24 02:26:22;;;;;;;6.80;4.00;;;;;;;8.83;74.25;95216.38;5052083;28;20476;-83
2022/09/24 02:28:49;;;;;;;4.60;4.20;;;;;;;8.89;73.81;95224.59;5051830;28;20462;-84
2022/09/24 02:31:21;;;;;;;5.90;4.27;;;;;;;8.89;74.49;95227.22;5051638;28;20956;-84
2022/09/24 02:36:35;;;;;;;6.87;5.20;;;;;;;8.81;74.77;95240.03;5022674;28;20650;-83
2022/09/24 02:39:03;;;;;;;7.07;5.90;;;;;;;8.66;75.19;95234.13;5051493;28;20482;-83
2022/09/24 02:41:31;;;;;;;10.33;8.70;;;;;;;8.34;76.37;95240.81;5051564;28;20532;-84
2022/09/24 02:43:58;;;;;;;9.60;7.27;;;;;;;8.26;76.51;95243.09;5052198;28;20442;-84
2022/09/24 02:46:26;;;;;;;9.90;8.70;;;;;;;8.22;77.29;95249.47;5051579;28;20438;-84
2022/09/24 02:48:53;;;;;;;13.77;8.67;;;;;;;8.23;77.63;95251.16;5051717;28;20445;-84
2022/09/24 02:51:20;;;;;;;9.47;8.47;;;;;;;8.25;77.67;95244.03;5051725;28;20452;-83
2022/09/24 02:53:47;;;;;;;10.17;9.03;;;;;;;8.27;77.61;95247.38;5051959;28;20445;-86
2022/09/24 02:56:14;;;;;;;9.77;8.20;;;;;;;8.23;77.60;95245.94;5051773;28;20449;-84
2022/09/24 02:58:42;;;;;;;11.60;8.10;;;;;;;8.26;77.88;95251.78;5032961;28;21054;-83
2022/09/24 03:01:08;;;;;;;7.90;6.00;;;;;;;8.24;77.71;95252.81;5051728;28;20936;-83
2022/09/24 03:03:37;;;;;;;7.97;6.00;;;;;;;8.26;78.02;95241.31;5052962;28;20877;-83
2022/09/24 03:06:04;;;;;;;5.30;4.80;;;;;;;8.31;77.90;95257.50;5036653;28;20441;-85
2022/09/24 03:08:31;;;;;;;4.83;4.43;;;;;;;8.28;77.89;95251.66;5055285;28;20453;-84
2022/09/24 03:10:58;;;;;;;6.97;4.60;;;;;;;8.25;78.04;95254.50;5055383;28;20811;-83
2022/09/24 03:13:24;;;;;;;5.00;4.50;;;;;;;8.29;77.68;95246.31;5055132;28;20456;-83
2022/09/24 03:15:51;;;;;;;4.57;4.13;;;;;;;8.31;77.56;95247.06;5055253;28;20444;-84
2022/09/24 03:18:18;;;;;;;4.83;4.40;;;;;;;8.32;77.09;95253.13;5055081;28;20480;-84
2022/09/24 03:20:55;;;;;;;4.70;4.30;;;;;;;8.31;77.17;95248.84;5055096;28;20802;-83
2022/09/24 03:23:23;;;;;;;6.80;4.47;;;;;;;8.27;77.22;95242.16;5055427;28;20795;-81
2022/09/24 03:25:49;;;;;;;9.80;4.77;;;;;;;8.27;76.97;95252.59;5054915;28;20531;-83
2022/09/24 03:28:17;;;;;;;7.47;4.60;;;;;;;8.24;77.18;95251.03;5054923;28;20666;-84
2022/09/24 03:31:02;;;;;;;7.78;4.78;;;;;;;8.27;77.43;95252.59;5054354;28;20467;-84
2022/09/24 03:33:31;;;;;;;5.07;4.57;;;;;;;8.30;76.84;95255.00;5054694;28;20256;-84
2022/09/24 03:36:01;;;;;;;5.50;5.00;;;;;;;8.22;76.57;95244.25;5036093;28;20449;-84
2022/09/24 03:38:29;;;;;;;5.30;4.80;;;;;;;8.30;76.54;95257.63;5054753;28;20488;-83
2022/09/24 03:40:56;;;;;;;11.83;4.70;;;;;;;8.38;76.57;95261.44;5054568;28;20457;-84
2022/09/24 03:43:23;;;;;;;5.93;5.43;;;;;;;8.38;76.76;95263.16;5054643;28;20446;-84
2022/09/24 03:45:50;;;;;;;5.87;5.33;;;;;;;8.37;76.66;95266.72;5019632;28;20457;-84
2022/09/24 03:48:17;;;;;;;5.20;4.70;;;;;;;8.41;76.57;95276.06;5054480;28;20445;-84
2022/09/24 03:50:44;;;;;;;5.90;5.30;;;;;;;8.39;76.51;95270.09;5054493;28;20450;-86
2022/09/24 03:53:13;;;;;;;4.77;4.20;;;;;;;8.40;76.86;95274.38;5019159;28;20427;-84
2022/09/24 03:55:43;;;;;;;5.63;5.10;;;;;;;8.36;77.03;95270.28;5019533;28;20449;-83
2022/09/24 03:58:10;;;;;;;5.83;5.10;;;;;;;8.33;76.17;95273.09;5066066;28;21049;-84
2022/09/24 04:00:37;;;;;;;7.03;5.87;;;;;;;8.33;76.69;95275.69;5067923;28;20510;-84
2022/09/24 04:03:04;;;;;;;5.90;5.40;;;;;;;8.22;76.84;95260.78;5054168;28;20485;-84
2022/09/24 04:05:31;;;;;;;9.50;5.53;;;;;;;8.33;76.68;95280.94;5054537;28;20858;-84
2022/09/24 04:07:58;;;;;;;14.53;6.50;;;;;;;8.29;76.75;95279.47;5019155;28;20463;-82
2022/09/24 04:10:26;;;;;;;10.47;7.60;;;;;;;8.26;76.52;95282.31;5053894;28;20448;-85
2022/09/24 04:12:54;;;;;;;8.97;6.10;;;;;;;8.22;76.70;95275.63;5052423;28;20459;-85
2022/09/24 04:15:22;;;;;;;7.70;5.47;;;;;;;8.18;76.87;95279.41;5054487;28;20511;-86
2022/09/24 04:17:51;;;;;;;6.87;5.50;;;;;;;8.17;77.05;95277.72;5054632;28;20544;-84
2022/09/24 04:20:21;;;;;;;6.83;5.77;;;;;;;8.17;77.40;95277.72;5055341;28;20775;-85
2022/09/24 04:22:49;;;;;;;12.73;6.00;;;;;;;8.16;77.35;95281.28;5055392;28;20547;-83
2022/09/24 04:25:16;;;;;;;5.67;5.13;;;;;;;8.16;77.62;95284.72;5054953;28;20482;-84
2022/09/24 04:27:45;;;;;;;8.73;5.07;;;;;;;8.15;77.88;95292.69;5055549;28;20442;-86
2022/09/24 04:30:13;;;;;;;5.40;4.90;;;;;;;8.16;77.48;95292.56;5055735;28;20460;-85
2022/09/24 04:32:41;;;;;;;8.07;5.07;;;;;;;8.13;77.18;95291.94;5055538;28;20451;-84
2022/09/24 04:35:09;;;;;;;5.60;5.10;;;;;;;8.12;77.18;95298.97;5055403;28;20455;-84
2022/09/24 04:37:36;;;;;;;9.30;4.60;;;;;;;8.07;77.55;95296.63;5055496;28;20518;-86
2022/09/24 04:40:04;;;;;;;5.63;5.13;;;;;;;7.99;77.50;95290.25;5055227;28;20489;-84
2022/09/24 04:42:31;;;;;;;5.63;4.40;;;;;;;8.08;77.78;95308.75;5055258;28;20623;-84
2022/09/24 04:45:00;;;;;;;5.33;4.53;;;;;;;8.05;77.91;95306.34;5055102;28;20790;-86
2022/09/24 04:47:27;;;;;;;7.40;4.90;;;;;;;8.07;77.96;95303.63;5055059;28;20468;-86
2022/09/24 04:49:53;;;;;;;6.77;5.30;;;;;;;8.07;77.74;95304.47;5055424;28;20432;-86
2022/09/24 04:52:28;;;;;;;6.60;5.33;;;;;;;8.14;78.23;95304.09;5055133;28;21605;-83
2022/09/24 04:54:56;;;;;;;5.23;4.83;;;;;;;8.18;78.26;95308.16;5055034;28;20521;-86
2022/09/24 04:57:24;;;;;;;7.10;5.90;;;;;;;8.22;78.13;95307.00;5054693;28;20455;-85
2022/09/24 04:59:50;;;;;;;5.93;5.27;;;;;;;8.24;78.19;95308.56;5054319;28;20488;-82
2022/09/24 05:02:19;;;;;;;5.67;5.17;;;;;;;8.28;78.35;95304.78;5054609;28;20451;-85
2022/09/24 05:04:45;;;;;;;6.73;6.13;;;;;;;8.35;78.48;95303.44;5055227;28;20477;-85
2022/09/24 05:07:14;;;;;;;6.30;5.63;;;;;;;8.36;78.59;95293.81;5055096;28;20440;-88
2022/09/24 05:09:40;;;;;;;9.30;7.20;;;;;;;8.44;78.55;95291.53;5054710;28;20481;-84
2022/09/24 05:12:07;;;;;;;6.23;5.63;;;;;;;8.56;78.26;95298.50;5054818;28;20460;-84
2022/09/24 05:14:34;;;;;;;8.70;6.60;;;;;;;8.72;78.92;95307.91;5054468;28;20452;-84
2022/09/24 05:17:01;;;;;;;9.50;7.60;;;;;;;9.13;78.83;95300.53;5054838;28;20453;-82
2022/09/24 05:19:29;;;;;;;12.30;8.47;;;;;;;9.78;76.64;95302.69;5054123;28;20496;-87
2022/09/24 05:21:56;;;;;;;12.40;7.50;;;;;;;10.49;73.01;95303.41;5054532;28;20434;-86
2022/09/24 05:24:23;;;;;;;11.63;7.30;;;;;;;11.25;70.78;95301.72;5054280;28;20805;-84
2022/09/24 05:29:34;;;;;;;9.73;8.50;;;;;;;12.74;64.83;95312.06;5053434;28;20432;-86
2022/09/24 05:32:04;;;;;;;13.10;7.80;;;;;;;12.84;63.06;95310.28;5054543;28;21150;-83
2022/09/24 05:34:32;;;;;;;8.70;7.80;;;;;;;13.23;62.98;95309.44;5054321;28;20453;-85
2022/09/24 05:36:59;;;;;;;9.53;7.63;;;;;;;13.49;61.01;95307.13;5054144;28;20715;-83
2022/09/24 05:39:26;;;;;;;7.97;7.17;;;;;;;13.56;59.62;95312.66;5054038;28;20473;-83
2022/09/24 05:41:53;;;;;;;12.30;8.10;;;;;;;13.63;60.43;95314.63;5067920;28;20511;-84
2022/09/24 05:44:20;;;;;;;9.97;8.33;;;;;;;13.94;59.91;95309.22;5053617;28;20450;-84
2022/09/24 05:46:47;;;;;;;8.77;7.87;;;;;;;14.35;58.66;95315.94;5018686;28;20481;-83
2022/09/24 05:49:14;;;;;;;9.13;7.43;;;;;;;14.42;57.25;95316.19;5064390;28;20919;-84
2022/09/24 05:51:42;;;;;;;10.17;7.43;;;;;;;14.37;57.63;95313.16;5057036;28;20450;-84
2022/09/24 05:54:10;;;;;;;8.93;7.60;;;;;;;14.59;57.78;95318.16;5053786;28;20457;-84
2022/09/24 05:56:37;;;;;;;9.00;8.10;;;;;;;14.90;56.59;95325.81;5053736;28;20480;-83
2022/09/24 05:59:04;;;;;;;8.63;7.73;;;;;;;14.88;55.99;95318.03;5054016;28;20473;-83
2022/09/24 06:01:31;;;;;;;9.03;7.93;;;;;;;14.99;55.61;95319.66;5034805;28;20830;-85
2022/09/24 06:03:59;;;;;;;11.93;8.50;;;;;;;15.08;55.92;95326.72;5053097;28;20853;-86
2022/09/24 06:06:26;;;;;;;10.00;8.57;;;;;;;15.21;55.12;95318.44;5035077;28;20442;-85
2022/09/24 06:08:55;;;;;;;13.50;9.10;;;;;;;15.64;54.97;95325.72;5053309;28;20452;-85
2022/09/24 06:11:23;;;;;;;9.97;8.10;;;;;;;16.07;54.09;95333.72;5053016;28;20469;-85
2022/09/24 06:13:50;;;;;;;9.70;8.67;;;;;;;15.78;53.04;95315.44;5054315;28;20461;-85
2022/09/24 06:16:18;;;;;;;9.07;8.20;;;;;;;15.30;54.14;95330.75;5052122;28;20529;-85
2022/09/24 06:18:45;;;;;;;8.93;8.03;;;;;;;15.32;55.28;95332.25;5052101;28;20456;-85
2022/09/24 06:21:16;;;;;;;9.57;8.03;;;;;;;15.45;55.30;95329.28;5051778;28;20468;-84
2022/09/24 06:23:44;;;;;;;9.63;7.50;;;;;;;15.86;54.95;95329.72;5031753;28;20451;-86
2022/09/24 06:26:14;;;;;;;8.57;7.73;;;;;;;15.87;53.71;95332.19;5032037;28;20478;-85
2022/09/24 06:28:41;;;;;;;8.70;7.80;;;;;;;16.18;53.96;95329.16;4997536;28;20447;-85
2022/09/24 06:31:10;;;;;;;10.80;8.00;;;;;;;16.47;53.01;95335.00;5042584;28;20474;-85
2022/09/24 06:33:38;;;;;;;10.43;7.40;;;;;;;16.64;51.87;95341.25;5051747;28;20473;-85
2022/09/24 06:36:05;;;;;;;9.10;7.47;;;;;;;16.57;52.29;95319.03;5051045;28;20449;-87
2022/09/24 06:38:32;;;;;;;11.37;7.87;;;;;;;16.78;52.20;95327.47;5052838;28;20484;-85
2022/09/24 06:41:00;;;;;;;8.80;7.80;;;;;;;16.99;50.80;95341.16;5055648;28;20484;-85
2022/09/24 06:43:28;;;;;;;10.80;7.40;;;;;;;17.15;51.46;95340.41;5055549;28;20943;-83
2022/09/24 06:45:56;;;;;;;7.67;6.97;;;;;;;17.30;50.79;95352.06;5055926;28;20851;-84
2022/09/24 06:48:23;;;;;;;8.00;7.17;;;;;;;17.48;50.27;95340.53;5055669;28;20444;-84
2022/09/24 06:50:50;;;;;;;10.47;6.77;;;;;;;17.62;50.14;95334.56;5056204;28;20449;-84
2022/09/24 06:53:18;;;;;;;9.53;7.03;;;;;;;17.73;48.87;95339.63;5055559;28;20444;-84
2022/09/24 06:55:46;;;;;;;8.37;6.67;;;;;;;16.71;50.58;95343.16;5055804;28;20481;-84
2022/09/24 06:58:14;;;;;;;9.37;6.97;;;;;;;16.92;51.67;95328.69;5055508;28;20452;-85
2022/09/24 07:00:43;;;;;;;6.83;6.23;;;;;;;17.21;50.45;95336.28;5055235;28;20838;-84
2022/09/24 07:03:14;;;;;;;8.90;7.13;;;;;;;16.39;51.03;95333.13;5055438;28;20504;-85
2022/09/24 07:05:41;;;;;;;8.37;7.07;;;;;;;16.66;51.85;95339.31;5054660;28;20814;-85
2022/09/24 07:08:08;;;;;;;9.90;6.70;;;;;;;16.47;52.58;95336.81;5054083;28;20949;-85
2022/09/24 07:10:36;;;;;;;8.00;7.20;;;;;;;16.40;52.74;95331.31;5053860;28;20443;-86
2022/09/24 07:13:03;;;;;;;8.77;7.80;;;;;;;16.52;52.73;95342.50;5055574;28;20457;-86
2022/09/24 07:15:30;;;;;;;6.67;6.10;;;;;;;16.77;52.15;95348.81;5055129;28;20944;-85
2022/09/24 07:17:58;;;;;;;7.87;6.17;;;;;;;16.68;50.97;95346.09;5054408;28;20792;-86
2022/09/24 07:20:27;;;;;;;6.73;5.37;;;;;;;16.67;51.11;95330.38;5054675;28;20865;-84
2022/09/24 07:22:54;;;;;;;8.63;6.70;;;;;;;16.88;50.99;95332.66;5054360;28;20454;-85
2022/09/24 07:25:21;;;;;;;9.63;6.33;;;;;;;16.76;51.65;95323.28;5055371;28;20445;-85
2022/09/24 07:27:47;;;;;;;9.30;6.43;;;;;;;16.80;51.24;95330.78;5054079;28;20931;-84
2022/09/24 07:30:15;;;;;;;7.00;6.30;;;;;;;16.54;51.30;95328.13;5054829;28;20446;-85
2022/09/24 07:32:41;;;;;;;7.73;6.87;;;;;;;16.29;52.68;95326.28;5052876;28;20471;-85
2022/09/24 07:35:10;;;;;;;7.70;6.80;;;;;;;16.43;52.11;95331.00;5054815;28;20710;-85
2022/09/24 07:37:37;;;;;;;7.00;6.30;;;;;;;16.55;51.91;95327.13;5054993;28;20446;-85
2022/09/24 07:40:04;;;;;;;8.20;6.83;;;;;;;16.68;51.24;95327.56;5054672;28;20489;-84
2022/09/24 07:42:30;;;;;;;8.70;7.03;;;;;;;16.75;51.92;95317.16;5053051;28;20931;-85
2022/09/24 07:44:59;;;;;;;8.63;6.87;;;;;;;16.96;50.46;95324.72;5054580;28;20455;-83
2022/09/24 07:47:26;;;;;;;7.50;6.80;;;;;;;16.73;50.81;95325.25;5054646;28;20455;-85
2022/09/24 07:49:53;;;;;;;8.27;7.20;;;;;;;16.68;51.32;95321.44;5053926;28;20446;-85
2022/09/24 07:52:21;;;;;;;8.37;6.10;;;;;;;16.63;50.81;95318.41;5055123;28;20455;-86
2022/09/24 07:54:48;;;;;;;7.50;5.87;;;;;;;16.85;50.49;95320.53;5054887;28;20816;-85
2022/09/24 07:57:15;;;;;;;10.23;5.93;;;;;;;17.08;50.98;95312.03;5053859;28;20536;-85
2022/09/24 07:59:43;;;;;;;8.90;6.37;;;;;;;17.15;51.20;95319.19;5053750;28;20492;-84
2022/09/24 08:02:16;;;;;;;7.67;6.60;;;;;;;17.38;49.78;95318.63;5053555;28;20449;-85
2022/09/24 08:04:43;;;;;;;9.50;5.73;;;;;;;17.32;49.14;95312.94;5045040;28;20472;-85
2022/09/24 08:07:10;;;;;;;7.47;6.10;;;;;;;17.20;49.63;95310.75;5054327;28;20436;-85
2022/09/24 08:09:39;;;;;;;9.87;6.00;;;;;;;17.10;49.64;95315.34;5054252;28;20481;-87
2022/09/24 08:12:06;;;;;;;11.97;5.87;;;;;;;17.09;49.75;95319.84;5053130;28;20923;-87
2022/09/24 08:14:34;;;;;;;15.40;6.33;;;;;;;17.08;50.29;95322.66;5052904;28;20978;-86
2022/09/24 08:17:01;;;;;;;13.97;5.50;;;;;;;17.00;50.67;95316.28;5054520;28;20441;-86
2022/09/24 08:19:30;;;;;;;7.27;5.40;;;;;;;17.19;49.42;95320.53;5054522;28;20453;-86
2022/09/24 08:21:57;;;;;;;7.20;6.07;;;;;;;17.24;49.72;95312.91;5053074;28;20444;-85
2022/09/24 08:24:24;;;;;;;7.20;5.60;;;;;;;17.27;48.42;95323.19;5054143;28;20440;-84
2022/09/24 08:26:52;;;;;;;45.70;9.50;;;;;;;17.36;49.60;95315.28;5052798;28;20444;-86
2022/09/24 08:29:19;;;;;;;5.73;5.23;;;;;;;17.45;48.85;95314.31;5053466;28;20448;-85
2022/09/24 08:31:46;;;;;;;8.43;6.40;;;;;;;17.57;48.32;95310.34;5054253;28;20810;-86
2022/09/24 08:34:13;;;;;;;59.53;11.30;;;;;;;17.59;48.13;95308.38;5054139;28;20452;-87
2022/09/24 08:36:40;;;;;;;7.57;6.00;;;;;;;17.58;47.82;95286.31;5035023;28;20897;-86
2022/09/24 08:39:07;;;;;;;5.83;5.23;;;;;;;17.86;47.59;95302.81;5054346;28;20472;-87
2022/09/24 08:41:53;;;;;;;5.77;5.27;;;;;;;17.67;46.88;95303.13;5053161;28;20481;-86
2022/09/24 08:47:24;;;;;;;7.20;6.00;;;;;;;17.42;48.45;95302.22;5054060;28;20436;-87
2022/09/24 08:50:01;;;;;;;7.37;6.50;;;;;;;17.68;49.28;95302.13;5052818;28;20522;-88
2022/09/24 08:52:45;;;;;;;7.23;6.50;;;;;;;17.61;48.19;95309.03;5053374;28;20943;-85
2022/09/24 08:55:16;;;;;;;14.83;5.93;;;;;;;17.60;47.93;95302.91;5044158;28;20491;-87
2022/09/24 08:57:55;;;;;;;7.40;5.10;;;;;;;17.75;48.12;95295.16;5054473;28;20904;-88
2022/09/24 09:00:23;;;;;;;6.10;5.53;;;;;;;18.05;48.33;95299.00;5053864;28;20508;-86
2022/09/24 09:02:59;;;;;;;14.20;5.90;;;;;;;18.22;47.59;95286.56;5053062;28;20481;-87
2022/09/24 09:05:49;;;;;;;7.60;5.33;;;;;;;18.37;46.30;95287.53;5054011;28;20495;-88
2022/09/24 09:08:22;;;;;;;8.63;5.50;;;;;;;18.43;46.51;95284.19;5053302;28;20434;-85
2022/09/24 09:10:53;;;;;;;9.30;6.00;;;;;;;18.34;46.64;95279.06;5053737;28;20441;-86
2022/09/24 09:13:26;;;;;;;6.53;5.30;;;;;;;18.31;45.60;95280.25;5054068;28;20450;-85
2022/09/24 09:16:06;;;;;;;6.33;5.60;;;;;;;18.07;46.30;95278.44;5035169;28;20442;-87
2022/09/24 09:18:37;;;;;;;7.50;4.97;;;;;;;18.13;47.62;95276.91;5035181;28;20450;-87
2022/09/24 09:21:16;;;;;;;7.07;5.07;;;;;;;17.95;47.20;95275.28;5034605;28;20533;-86
2022/09/24 09:23:48;;;;;;;10.03;4.70;;;;;;;18.09;47.34;95279.09;5034544;28;20442;-85
2022/09/24 09:26:17;;;;;;;6.00;5.33;;;;;;;18.13;46.43;95276.91;5032665;28;20442;-85
2022/09/24 09:28:44;;;;;;;5.77;5.20;;;;;;;18.16;46.59;95276.59;5033773;28;20449;-87
2022/09/24 09:31:24;;;;;;;8.67;5.27;;;;;;;18.00;46.60;95276.59;5033769;28;20458;-86
2022/09/24 09:34:04;;;;;;;10.30;5.17;;;;;;;17.95;46.35;95259.34;5040264;28;20449;-86
2022/09/24 09:36:52;;;;;;;7.40;5.23;;;;;;;18.09;46.40;95260.50;5053025;28;20453;-86
2022/09/24 09:39:29;;;;;;;8.30;4.70;;;;;;;18.25;45.68;95255.19;5052869;28;20481;-87
2022/09/24 09:42:03;;;;;;;11.53;5.77;;;;;;;18.43;44.89;95247.00;5052344;28;21022;-84
2022/09/24 09:44:31;;;;;;;5.70;5.20;;;;;;;18.57;45.59;95243.66;5052769;28;20445;-86
2022/09/24 09:47:11;;;;;;;5.70;5.20;;;;;;;18.62;45.02;95237.84;5049372;28;20434;-85
2022/09/24 09:49:40;;;;;;;12.33;5.43;;;;;;;18.62;44.55;95248.50;5052138;28;20449;-85
2022/09/24 09:52:13;;;;;;;5.70;5.10;;;;;;;18.62;44.21;95245.81;5050044;28;20449;-86
2022/09/24 09:54:42;;;;;;;6.67;5.87;;;;;;;18.57;43.27;95241.00;5051612;28;20450;-86
2022/09/24 09:57:16;;;;;;;11.67;5.00;;;;;;;18.53;43.40;95233.53;5051489;28;20445;-85
2022/09/24 09:59:47;;;;;;;4.73;4.30;;;;;;;18.60;43.70;95231.84;5051878;28;20527;-85
2022/09/24 10:02:22;;;;;;;5.77;5.13;;;;;;;18.74;44.73;95230.31;5052079;28;20458;-85
2022/09/24 10:04:54;;;;;;;6.47;5.50;;;;;;;18.78;44.01;95218.34;5053958;28;20465;-86
2022/09/24 10:07:22;;;;;;;9.43;5.17;;;;;;;18.75;43.94;95224.84;5053256;28;20481;-86
2022/09/24 10:10:00;;;;;;;6.20;4.83;;;;;;;18.84;42.86;95207.88;5052042;28;20438;-86
2022/09/24 10:12:28;;;;;;;10.10;6.17;;;;;;;18.68;42.42;95210.59;5053583;28;20485;-88
2022/09/24 10:15:00;;;;;;;5.20;4.70;;;;;;;18.80;42.26;95201.25;5053354;28;20461;-86
2022/09/24 10:17:33;;;;;;;5.00;4.57;;;;;;;18.79;41.09;95206.72;5054590;28;20749;-86
2022/09/24 10:20:02;;;;;;;10.33;4.00;;;;;;;18.69;41.47;95208.75;5053174;28;20450;-86
2022/09/24 10:22:30;;;;;;;9.23;5.10;;;;;;;18.75;41.82;95203.56;5019820;28;20454;-85
2022/09/24 10:25:17;;;;;;;6.23;4.20;;;;;;;18.75;41.26;95197.41;5053807;28;20904;-85
2022/09/24 10:27:44;;;;;;;5.50;4.00;;;;;;;18.91;42.25;95197.38;5053109;28;20454;-86
2022/09/24 10:37:01;;;;;;;9.23;4.77;;;;;;;19.08;39.87;95187.44;5032248;28;20477;-87
2022/09/24 10:39:29;;;;;;;5.57;3.77;;;;;;;19.10;39.41;95191.63;5047099;28;20450;-84
2022/09/24 10:41:58;;;;;;;5.40;3.60;;;;;;;19.12;39.74;95197.59;5053273;28;20901;-87
2022/09/24 10:44:32;;;;;;;4.67;4.27;;;;;;;19.06;38.44;95190.28;5053368;28;20448;-87
2022/09/24 10:47:23;;;;;;;5.27;4.60;;;;;;;19.09;38.79;95184.66;5053147;28;20443;-85
2022/09/24 10:50:19;;;;;;;7.22;5.00;;;;;;;19.13;38.62;95188.59;5045541;28;20546;-87
2022/09/24 10:52:53;;;;;;;6.33;4.67;;;;;;;19.05;38.76;95193.94;5053628;28;20290;-86
2022/09/24 10:55:37;;;;;;;5.07;4.47;;;;;;;19.10;39.30;95173.00;5053249;28;20503;-86
2022/09/24 10:58:21;;;;;;;6.13;5.50;;;;;;;19.11;38.57;95172.00;5053240;28;20597;-86
2022/09/24 11:00:56;;;;;;;4.93;4.50;;;;;;;19.09;39.51;95174.00;5053365;28;20461;-85
2022/09/24 11:04:11;;;;;;;4.87;4.40;;;;;;;19.15;39.16;95175.13;5053241;28;20481;-87
2022/09/24 11:06:47;;;;;;;6.53;4.63;;;;;;;19.17;40.12;95179.28;5053085;28;20446;-86
2022/09/24 11:09:26;;;;;;;5.50;4.80;;;;;;;19.21;39.54;95181.56;5053597;28;20450;-86
2022/09/24 11:12:04;;;;;;;5.93;4.53;;;;;;;19.12;38.81;95173.66;5053045;28;20445;-86
2022/09/24 11:14:54;;;;;;;7.00;5.23;;;;;;;19.11;39.01;95181.81;5053506;28;20453;-86
2022/09/24 11:17:34;;;;;;;5.13;4.73;;;;;;;19.12;39.03;95172.81;5053181;28;21000;-86
2022/09/24 11:20:20;;;;;;;5.77;5.27;;;;;;;19.08;40.15;95171.50;5053197;28;20449;-86
2022/09/24 11:23:17;;;;;;;6.17;5.57;;;;;;;19.04;38.71;95171.03;5011207;28;20797;-86
2022/09/24 11:25:54;;;;;;;8.73;4.60;;;;;;;19.15;39.58;95161.81;5014028;28;20439;-86
2022/09/24 11:28:35;;;;;;;9.47;5.00;;;;;;;19.26;40.43;95158.75;4995311;28;20458;-86
2022/09/24 11:31:12;;;;;;;9.87;4.80;;;;;;;19.42;39.49;95155.16;4995998;28;20546;-84
2022/09/24 11:34:00;;;;;;;5.57;5.07;;;;;;;19.52;38.02;95149.59;5012525;28;20446;-85
2022/09/24 11:36:50;;;;;;;5.90;4.80;;;;;;;19.61;37.75;95137.88;4996525;28;20447;-88
2022/09/24 11:39:30;;;;;;;4.67;4.27;;;;;;;19.69;37.60;95133.34;4933273;29;20454;-87
2022/09/24 11:42:08;;;;;;;6.60;4.67;;;;;;;19.57;36.16;95145.41;4933691;29;20899;-87
2022/09/24 11:44:57;;;;;;;8.13;4.07;;;;;;;19.41;37.00;95137.53;4933710;29;20439;-86
2022/09/24 11:47:42;;;;;;;6.20;4.10;;;;;;;19.26;35.49;95136.63;4935285;29;20459;-85
2022/09/24 11:50:33;;;;;;;3.40;3.20;;;;;;;19.21;35.50;95131.03;4935200;29;20967;-85
2022/09/24 11:53:09;;;;;;;5.30;4.10;;;;;;;19.31;36.17;95113.81;4934949;29;20451;-85
2022/09/24 11:55:43;;;;;;;6.13;4.53;;;;;;;19.37;35.47;95123.75;4903774;29;20443;-86
2022/09/24 11:58:16;;;;;;;4.20;3.87;;;;;;;19.52;35.12;95122.97;4935073;29;20459;-85
2022/09/24 12:00:50;;;;;;;3.73;3.43;;;;;;;19.59;34.48;95113.28;4980163;28;20488;-86
2022/09/24 12:03:20;;;;;;;5.47;3.90;;;;;;;19.66;35.31;95108.88;4992499;28;20472;-85
2022/09/24 12:05:55;;;;;;;4.67;4.10;;;;;;;19.79;34.71;95107.28;4992740;28;20542;-85
2022/09/24 12:08:28;;;;;;;3.80;3.50;;;;;;;19.83;33.50;95106.91;4992761;28;20451;-85
2022/09/24 12:11:02;;;;;;;5.60;3.97;;;;;;;19.80;34.43;95100.94;4992700;28;20480;-86
2022/09/24 12:13:37;;;;;;;3.60;3.30;;;;;;;19.95;33.82;95105.44;4992713;28;20461;-86